sensor_id;sensor_type;location;lat;lon;timestamp;temperature;humidity
13091;DHT22;6611;52.604;13.438;2023-05-14T00:00:35;11.58;75.65
13091;DHT22;6611;52.604;13.438;2023-05-14T00:05:38;11.48;76.63
13091;DHT22;6611;52.604;13.438;2023-05-14T00:10:40;11.52;76.26
13091;DHT22;6611;52.604;13.438;2023-05-14T00:15:41;11.54;76.38
13091;DHT22;6611;52.604;13.438;2023-05-14T00:20:45;11.46;76.90
13091;DHT22;6611;52.604;13.438;2023-05-14T00:25:46;11.46;77.01
13091;DHT22;6611;52.604;13.438;2023-05-14T00:30:48;11.42;77.08
13091;DHT22;6611;52.604;13.438;2023-05-14T00:35:51;11.40;77.41
13091;DHT22;6611;52.604;13.438;2023-05-14T00:40:53;11.36;77.22
13091;DHT22;6611;52.604;13.438;2023-05-14T00:45:55;11.28;77.45
13091;DHT22;6611;52.604;13.438;2023-05-14T00:50:58;11.32;77.40
13091;DHT22;6611;52.604;13.438;2023-05-14T00:55:59;11.29;77.37
13091;DHT22;6611;52.604;13.438;2023-05-14T01:01:01;11.28;77.27
13091;DHT22;6611;52.604;13.438;2023-05-14T01:06:10;11.25;77.14
13091;DHT22;6611;52.604;13.438;2023-05-14T01:11:18;11.15;77.27
13091;DHT22;6611;52.604;13.438;2023-05-14T01:16:23;11.01;77.65
13091;DHT22;6611;52.604;13.438;2023-05-14T01:21:35;10.94;77.63
13091;DHT22;6611;52.604;13.438;2023-05-14T01:26:38;10.87;77.74
13091;DHT22;6611;52.604;13.438;2023-05-14T01:31:42;10.70;78.37
13091;DHT22;6611;52.604;13.438;2023-05-14T01:36:46;10.66;78.30
13091;DHT22;6611;52.604;13.438;2023-05-14T01:41:49;10.60;78.38
13091;DHT22;6611;52.604;13.438;2023-05-14T01:46:51;10.53;78.68
13091;DHT22;6611;52.604;13.438;2023-05-14T01:51:54;10.46;78.77
13091;DHT22;6611;52.604;13.438;2023-05-14T01:56:56;10.41;78.74
13091;DHT22;6611;52.604;13.438;2023-05-14T02:01:58;10.32;78.84
13091;DHT22;6611;52.604;13.438;2023-05-14T02:07:01;10.20;79.21
13091;DHT22;6611;52.604;13.438;2023-05-14T02:12:03;10.13;79.28
13091;DHT22;6611;52.604;13.438;2023-05-14T02:17:04;10.17;79.19
13091;DHT22;6611;52.604;13.438;2023-05-14T02:22:08;10.13;79.56
13091;DHT22;6611;52.604;13.438;2023-05-14T02:27:09;10.11;79.98
13091;DHT22;6611;52.604;13.438;2023-05-14T02:32:12;10.18;80.28
13091;DHT22;6611;52.604;13.438;2023-05-14T02:37:15;10.28;80.45
13091;DHT22;6611;52.604;13.438;2023-05-14T02:42:17;10.37;80.42
13091;DHT22;6611;52.604;13.438;2023-05-14T02:47:18;10.44;80.33
13091;DHT22;6611;52.604;13.438;2023-05-14T02:52:22;10.52;80.08
13091;DHT22;6611;52.604;13.438;2023-05-14T02:57:23;10.60;79.93
13091;DHT22;6611;52.604;13.438;2023-05-14T03:02:25;10.66;79.77
13091;DHT22;6611;52.604;13.438;2023-05-14T03:07:28;10.76;79.69
13091;DHT22;6611;52.604;13.438;2023-05-14T03:12:30;10.77;79.62
13091;DHT22;6611;52.604;13.438;2023-05-14T03:17:32;10.80;79.78
13091;DHT22;6611;52.604;13.438;2023-05-14T03:22:35;10.87;79.29
13091;DHT22;6611;52.604;13.438;2023-05-14T03:27:37;10.97;79.43
13091;DHT22;6611;52.604;13.438;2023-05-14T03:32:38;11.00;79.49
13091;DHT22;6611;52.604;13.438;2023-05-14T03:37:41;11.01;79.55
13091;DHT22;6611;52.604;13.438;2023-05-14T03:42:43;11.10;79.42
13091;DHT22;6611;52.604;13.438;2023-05-14T03:47:45;11.17;79.41
13091;DHT22;6611;52.604;13.438;2023-05-14T03:52:48;11.22;79.15
13091;DHT22;6611;52.604;13.438;2023-05-14T03:57:50;11.28;78.83
13091;DHT22;6611;52.604;13.438;2023-05-14T04:02:51;11.38;78.50
13091;DHT22;6611;52.604;13.438;2023-05-14T04:07:55;11.48;78.97
13091;DHT22;6611;52.604;13.438;2023-05-14T04:12:57;11.55;78.57
13091;DHT22;6611;52.604;13.438;2023-05-14T04:17:59;11.63;78.33
13091;DHT22;6611;52.604;13.438;2023-05-14T04:23:02;11.76;77.70
13091;DHT22;6611;52.604;13.438;2023-05-14T04:28:04;11.84;76.71
13091;DHT22;6611;52.604;13.438;2023-05-14T04:33:06;11.87;76.16
13091;DHT22;6611;52.604;13.438;2023-05-14T04:38:09;11.87;76.60
13091;DHT22;6611;52.604;13.438;2023-05-14T04:43:10;11.84;76.76
13091;DHT22;6611;52.604;13.438;2023-05-14T04:48:12;11.95;76.33
13091;DHT22;6611;52.604;13.438;2023-05-14T04:53:15;12.11;75.54
13091;DHT22;6611;52.604;13.438;2023-05-14T04:58:17;12.42;75.56
13091;DHT22;6611;52.604;13.438;2023-05-14T05:03:18;13.04;74.11
13091;DHT22;6611;52.604;13.438;2023-05-14T05:08:21;13.83;71.46
13091;DHT22;6611;52.604;13.438;2023-05-14T05:13:23;14.56;68.32
13091;DHT22;6611;52.604;13.438;2023-05-14T05:18:25;14.91;66.23
13091;DHT22;6611;52.604;13.438;2023-05-14T05:23:28;15.08;63.65
13091;DHT22;6611;52.604;13.438;2023-05-14T05:28:30;14.94;61.02
13091;DHT22;6611;52.604;13.438;2023-05-14T05:33:33;14.88;58.75
13091;DHT22;6611;52.604;13.438;2023-05-14T05:38:36;14.80;58.85
13091;DHT22;6611;52.604;13.438;2023-05-14T05:43:38;14.85;58.31
13091;DHT22;6611;52.604;13.438;2023-05-14T05:48:39;14.91;58.99
13091;DHT22;6611;52.604;13.438;2023-05-14T05:53:43;14.77;58.69
13091;DHT22;6611;52.604;13.438;2023-05-14T05:58:44;14.99;59.62
13091;DHT22;6611;52.604;13.438;2023-05-14T06:03:46;15.21;58.11
13091;DHT22;6611;52.604;13.438;2023-05-14T06:08:49;15.42;57.74
13091;DHT22;6611;52.604;13.438;2023-05-14T06:13:51;15.59;56.25
13091;DHT22;6611;52.604;13.438;2023-05-14T06:18:52;15.63;58.11
13091;DHT22;6611;52.604;13.438;2023-05-14T06:23:56;15.76;58.03
13091;DHT22;6611;52.604;13.438;2023-05-14T06:29:01;15.78;57.27
13091;DHT22;6611;52.604;13.438;2023-05-14T06:34:02;15.76;57.27
13091;DHT22;6611;52.604;13.438;2023-05-14T06:39:07;15.80;57.73
13091;DHT22;6611;52.604;13.438;2023-05-14T06:44:09;15.86;59.75
13091;DHT22;6611;52.604;13.438;2023-05-14T06:49:11;16.01;57.39
13091;DHT22;6611;52.604;13.438;2023-05-14T06:54:14;16.19;56.85
13091;DHT22;6611;52.604;13.438;2023-05-14T06:59:16;16.26;55.58
13091;DHT22;6611;52.604;13.438;2023-05-14T07:04:18;16.45;55.49
13091;DHT22;6611;52.604;13.438;2023-05-14T07:09:21;16.52;55.40
13091;DHT22;6611;52.604;13.438;2023-05-14T07:14:22;16.49;54.08
13091;DHT22;6611;52.604;13.438;2023-05-14T07:19:24;16.50;55.94
13091;DHT22;6611;52.604;13.438;2023-05-14T07:24:29;16.49;54.84
13091;DHT22;6611;52.604;13.438;2023-05-14T07:29:31;16.59;55.72
13091;DHT22;6611;52.604;13.438;2023-05-14T07:34:34;16.81;56.35
13091;DHT22;6611;52.604;13.438;2023-05-14T07:39:37;17.04;55.85
13091;DHT22;6611;52.604;13.438;2023-05-14T07:44:40;17.28;53.41
13091;DHT22;6611;52.604;13.438;2023-05-14T07:49:42;17.33;53.03
13091;DHT22;6611;52.604;13.438;2023-05-14T07:54:45;17.45;53.33
13091;DHT22;6611;52.604;13.438;2023-05-14T07:59:47;17.87;52.41
13091;DHT22;6611;52.604;13.438;2023-05-14T08:04:49;18.13;51.83
13091;DHT22;6611;52.604;13.438;2023-05-14T08:09:52;18.42;54.20
13091;DHT22;6611;52.604;13.438;2023-05-14T08:14:54;18.42;52.50
13091;DHT22;6611;52.604;13.438;2023-05-14T08:19:55;18.60;52.19
13091;DHT22;6611;52.604;13.438;2023-05-14T08:24:59;18.60;52.03
13091;DHT22;6611;52.604;13.438;2023-05-14T08:30:04;18.71;51.68
13091;DHT22;6611;52.604;13.438;2023-05-14T08:35:06;18.89;51.01
13091;DHT22;6611;52.604;13.438;2023-05-14T08:40:10;19.03;49.90
13091;DHT22;6611;52.604;13.438;2023-05-14T08:45:17;19.45;48.57
13091;DHT22;6611;52.604;13.438;2023-05-14T08:50:19;19.91;48.29
13091;DHT22;6611;52.604;13.438;2023-05-14T08:55:23;20.29;47.44
13091;DHT22;6611;52.604;13.438;2023-05-14T09:00:25;20.51;46.20
13091;DHT22;6611;52.604;13.438;2023-05-14T09:05:27;20.94;44.59
13091;DHT22;6611;52.604;13.438;2023-05-14T09:10:30;20.95;44.60
13091;DHT22;6611;52.604;13.438;2023-05-14T09:15:33;21.22;44.91
13091;DHT22;6611;52.604;13.438;2023-05-14T09:20:37;21.46;44.96
13091;DHT22;6611;52.604;13.438;2023-05-14T09:25:41;21.61;43.64
13091;DHT22;6611;52.604;13.438;2023-05-14T09:30:49;22.13;42.23
13091;DHT22;6611;52.604;13.438;2023-05-14T09:35:54;22.48;41.99
13091;DHT22;6611;52.604;13.438;2023-05-14T09:40:58;22.84;41.97
13091;DHT22;6611;52.604;13.438;2023-05-14T09:46:00;22.99;39.54
13091;DHT22;6611;52.604;13.438;2023-05-14T09:51:02;22.91;40.78
13091;DHT22;6611;52.604;13.438;2023-05-14T09:56:06;23.15;39.15
13091;DHT22;6611;52.604;13.438;2023-05-14T10:01:08;23.28;37.24
13091;DHT22;6611;52.604;13.438;2023-05-14T10:06:12;22.91;39.05
13091;DHT22;6611;52.604;13.438;2023-05-14T10:11:18;23.37;36.38
13091;DHT22;6611;52.604;13.438;2023-05-14T10:16:26;23.54;35.27
13091;DHT22;6611;52.604;13.438;2023-05-14T10:21:29;23.60;36.13
13091;DHT22;6611;52.604;13.438;2023-05-14T10:26:36;23.27;36.17
13091;DHT22;6611;52.604;13.438;2023-05-14T10:31:46;23.67;33.97
13091;DHT22;6611;52.604;13.438;2023-05-14T10:36:48;23.85;34.48
13091;DHT22;6611;52.604;13.438;2023-05-14T10:41:51;24.03;33.31
13091;DHT22;6611;52.604;13.438;2023-05-14T10:46:53;23.99;31.69
13091;DHT22;6611;52.604;13.438;2023-05-14T10:51:56;23.69;33.28
13091;DHT22;6611;52.604;13.438;2023-05-14T10:57:02;23.61;32.02
13091;DHT22;6611;52.604;13.438;2023-05-14T11:02:04;22.94;34.29
13091;DHT22;6611;52.604;13.438;2023-05-14T11:07:06;21.95;36.19
13091;DHT22;6611;52.604;13.438;2023-05-14T11:12:09;21.62;36.82
13091;DHT22;6611;52.604;13.438;2023-05-14T11:17:11;21.40;38.32
13091;DHT22;6611;52.604;13.438;2023-05-14T11:22:13;21.47;38.35
13091;DHT22;6611;52.604;13.438;2023-05-14T11:27:17;21.79;39.10
13091;DHT22;6611;52.604;13.438;2023-05-14T11:32:26;21.93;39.63
13091;DHT22;6611;52.604;13.438;2023-05-14T11:37:29;21.89;35.88
13091;DHT22;6611;52.604;13.438;2023-05-14T11:42:34;22.02;38.64
13091;DHT22;6611;52.604;13.438;2023-05-14T11:47:39;21.93;37.59
13091;DHT22;6611;52.604;13.438;2023-05-14T11:52:42;22.08;39.98
13091;DHT22;6611;52.604;13.438;2023-05-14T11:57:47;21.98;37.82
13091;DHT22;6611;52.604;13.438;2023-05-14T12:02:49;21.53;38.84
13091;DHT22;6611;52.604;13.438;2023-05-14T12:07:52;21.00;40.49
13091;DHT22;6611;52.604;13.438;2023-05-14T12:12:57;20.48;43.92
13091;DHT22;6611;52.604;13.438;2023-05-14T12:17:58;20.05;42.30
13091;DHT22;6611;52.604;13.438;2023-05-14T12:23:00;20.22;42.82
13091;DHT22;6611;52.604;13.438;2023-05-14T12:28:12;20.45;42.02
13091;DHT22;6611;52.604;13.438;2023-05-14T12:33:20;20.75;40.70
13091;DHT22;6611;52.604;13.438;2023-05-14T12:38:23;21.02;41.27
13091;DHT22;6611;52.604;13.438;2023-05-14T12:43:26;21.51;39.47
13091;DHT22;6611;52.604;13.438;2023-05-14T12:48:30;22.05;40.31
13091;DHT22;6611;52.604;13.438;2023-05-14T12:53:32;22.10;38.05
13091;DHT22;6611;52.604;13.438;2023-05-14T12:58:36;22.55;36.94
13091;DHT22;6611;52.604;13.438;2023-05-14T13:03:37;22.89;37.95
13091;DHT22;6611;52.604;13.438;2023-05-14T13:08:40;23.09;39.35
13091;DHT22;6611;52.604;13.438;2023-05-14T13:13:52;22.87;39.45
13091;DHT22;6611;52.604;13.438;2023-05-14T13:18:54;22.39;38.17
13091;DHT22;6611;52.604;13.438;2023-05-14T13:23:59;21.69;37.19
13091;DHT22;6611;52.604;13.438;2023-05-14T13:29:05;21.51;38.89
13091;DHT22;6611;52.604;13.438;2023-05-14T13:34:07;21.24;38.56
13091;DHT22;6611;52.604;13.438;2023-05-14T13:39:15;21.09;38.39
13091;DHT22;6611;52.604;13.438;2023-05-14T13:44:29;21.26;37.19
13091;DHT22;6611;52.604;13.438;2023-05-14T13:49:33;21.43;38.96
13091;DHT22;6611;52.604;13.438;2023-05-14T13:54:36;21.59;36.51
13091;DHT22;6611;52.604;13.438;2023-05-14T13:59:40;21.55;37.38
13091;DHT22;6611;52.604;13.438;2023-05-14T14:04:43;21.81;38.11
13091;DHT22;6611;52.604;13.438;2023-05-14T14:09:45;22.03;39.67
13091;DHT22;6611;52.604;13.438;2023-05-14T14:14:48;21.75;35.90
13091;DHT22;6611;52.604;13.438;2023-05-14T14:19:50;21.43;38.24
13091;DHT22;6611;52.604;13.438;2023-05-14T14:24:52;21.32;38.35
13091;DHT22;6611;52.604;13.438;2023-05-14T14:29:55;21.19;38.86
13091;DHT22;6611;52.604;13.438;2023-05-14T14:35:00;21.10;39.70
13091;DHT22;6611;52.604;13.438;2023-05-14T14:40:02;20.95;38.53
13091;DHT22;6611;52.604;13.438;2023-05-14T14:45:08;20.68;41.74
13091;DHT22;6611;52.604;13.438;2023-05-14T14:50:14;20.55;40.45
13091;DHT22;6611;52.604;13.438;2023-05-14T14:55:19;20.54;39.89
13091;DHT22;6611;52.604;13.438;2023-05-14T15:00:23;20.41;40.74
13091;DHT22;6611;52.604;13.438;2023-05-14T15:05:25;20.34;43.62
13091;DHT22;6611;52.604;13.438;2023-05-14T15:10:30;20.33;42.97
13091;DHT22;6611;52.604;13.438;2023-05-14T15:15:38;20.25;41.92
13091;DHT22;6611;52.604;13.438;2023-05-14T15:20:43;20.13;41.65
13091;DHT22;6611;52.604;13.438;2023-05-14T15:25:49;20.09;42.55
13091;DHT22;6611;52.604;13.438;2023-05-14T15:30:53;19.93;41.43
13091;DHT22;6611;52.604;13.438;2023-05-14T15:35:56;19.84;40.88
13091;DHT22;6611;52.604;13.438;2023-05-14T15:41:01;19.98;40.82
13091;DHT22;6611;52.604;13.438;2023-05-14T15:46:07;19.99;39.77
13091;DHT22;6611;52.604;13.438;2023-05-14T15:51:09;20.06;40.50
13091;DHT22;6611;52.604;13.438;2023-05-14T15:56:11;20.05;41.07
13091;DHT22;6611;52.604;13.438;2023-05-14T16:01:17;20.13;40.98
13091;DHT22;6611;52.604;13.438;2023-05-14T16:06:19;20.19;41.32
13091;DHT22;6611;52.604;13.438;2023-05-14T16:11:20;20.13;43.31
13091;DHT22;6611;52.604;13.438;2023-05-14T16:16:24;20.10;43.33
13091;DHT22;6611;52.604;13.438;2023-05-14T16:21:27;20.04;43.26
13091;DHT22;6611;52.604;13.438;2023-05-14T16:26:29;20.02;42.81
13091;DHT22;6611;52.604;13.438;2023-05-14T16:31:32;20.06;43.41
13091;DHT22;6611;52.604;13.438;2023-05-14T16:36:36;19.96;42.00
13091;DHT22;6611;52.604;13.438;2023-05-14T16:41:41;19.81;43.85
13091;DHT22;6611;52.604;13.438;2023-05-14T16:46:45;19.68;43.51
13091;DHT22;6611;52.604;13.438;2023-05-14T16:51:47;19.57;43.86
13091;DHT22;6611;52.604;13.438;2023-05-14T16:56:50;19.46;44.93
13091;DHT22;6611;52.604;13.438;2023-05-14T17:01:54;19.29;45.93
13091;DHT22;6611;52.604;13.438;2023-05-14T17:07:01;19.11;46.97
13091;DHT22;6611;52.604;13.438;2023-05-14T17:12:03;18.83;47.32
13091;DHT22;6611;52.604;13.438;2023-05-14T17:17:07;18.70;46.38
13091;DHT22;6611;52.604;13.438;2023-05-14T17:22:09;18.65;46.10
13091;DHT22;6611;52.604;13.438;2023-05-14T17:27:13;18.49;48.36
13091;DHT22;6611;52.604;13.438;2023-05-14T17:32:18;18.33;50.65
13091;DHT22;6611;52.604;13.438;2023-05-14T17:37:20;18.12;52.12
13091;DHT22;6611;52.604;13.438;2023-05-14T17:42:25;17.92;53.28
13091;DHT22;6611;52.604;13.438;2023-05-14T17:47:30;17.73;54.27
13091;DHT22;6611;52.604;13.438;2023-05-14T17:52:35;17.50;55.37
13091;DHT22;6611;52.604;13.438;2023-05-14T17:57:37;17.39;56.28
13091;DHT22;6611;52.604;13.438;2023-05-14T18:02:40;17.16;56.28
13091;DHT22;6611;52.604;13.438;2023-05-14T18:07:42;16.94;58.03
13091;DHT22;6611;52.604;13.438;2023-05-14T18:12:44;16.75;58.53
13091;DHT22;6611;52.604;13.438;2023-05-14T18:17:51;16.57;59.10
13091;DHT22;6611;52.604;13.438;2023-05-14T18:22:55;16.38;59.48
13091;DHT22;6611;52.604;13.438;2023-05-14T18:27:57;16.23;60.31
13091;DHT22;6611;52.604;13.438;2023-05-14T18:33:00;16.08;60.64
13091;DHT22;6611;52.604;13.438;2023-05-14T18:38:03;15.94;61.25
13091;DHT22;6611;52.604;13.438;2023-05-14T18:43:07;15.83;62.06
13091;DHT22;6611;52.604;13.438;2023-05-14T18:48:11;15.69;62.23
13091;DHT22;6611;52.604;13.438;2023-05-14T18:53:16;15.61;62.58
13091;DHT22;6611;52.604;13.438;2023-05-14T18:58:19;15.54;63.14
13091;DHT22;6611;52.604;13.438;2023-05-14T19:03:22;15.49;63.53
13091;DHT22;6611;52.604;13.438;2023-05-14T19:08:23;15.42;63.76
13091;DHT22;6611;52.604;13.438;2023-05-14T19:13:25;15.35;64.07
13091;DHT22;6611;52.604;13.438;2023-05-14T19:18:29;15.19;64.34
13091;DHT22;6611;52.604;13.438;2023-05-14T19:23:31;15.07;64.46
13091;DHT22;6611;52.604;13.438;2023-05-14T19:28:32;14.92;64.78
13091;DHT22;6611;52.604;13.438;2023-05-14T19:33:36;14.76;65.37
13091;DHT22;6611;52.604;13.438;2023-05-14T19:38:37;14.66;66.04
13091;DHT22;6611;52.604;13.438;2023-05-14T19:43:39;14.57;66.01
13091;DHT22;6611;52.604;13.438;2023-05-14T19:48:42;14.49;66.58
13091;DHT22;6611;52.604;13.438;2023-05-14T19:53:44;14.33;67.33
13091;DHT22;6611;52.604;13.438;2023-05-14T19:58:46;14.30;67.36
13091;DHT22;6611;52.604;13.438;2023-05-14T20:03:49;14.24;67.77
13091;DHT22;6611;52.604;13.438;2023-05-14T20:08:50;14.10;68.00
13091;DHT22;6611;52.604;13.438;2023-05-14T20:13:52;13.98;68.32
13091;DHT22;6611;52.604;13.438;2023-05-14T20:18:55;13.83;68.51
13091;DHT22;6611;52.604;13.438;2023-05-14T20:23:57;13.80;68.97
13091;DHT22;6611;52.604;13.438;2023-05-14T20:28:58;13.67;69.32
13091;DHT22;6611;52.604;13.438;2023-05-14T20:34:01;13.56;70.41
13091;DHT22;6611;52.604;13.438;2023-05-14T20:39:03;13.48;70.99
13091;DHT22;6611;52.604;13.438;2023-05-14T20:44:05;13.42;71.18
13091;DHT22;6611;52.604;13.438;2023-05-14T20:49:09;13.39;71.37
13091;DHT22;6611;52.604;13.438;2023-05-14T20:54:10;13.29;71.74
13091;DHT22;6611;52.604;13.438;2023-05-14T20:59:12;13.21;71.80
13091;DHT22;6611;52.604;13.438;2023-05-14T21:04:15;13.05;72.53
13091;DHT22;6611;52.604;13.438;2023-05-14T21:09:17;12.94;72.87
13091;DHT22;6611;52.604;13.438;2023-05-14T21:14:20;12.90;73.39
13091;DHT22;6611;52.604;13.438;2023-05-14T21:19:23;12.80;73.65
13091;DHT22;6611;52.604;13.438;2023-05-14T21:24:25;12.69;74.17
13091;DHT22;6611;52.604;13.438;2023-05-14T21:29:27;12.66;74.21
13091;DHT22;6611;52.604;13.438;2023-05-14T21:34:30;12.60;74.42
13091;DHT22;6611;52.604;13.438;2023-05-14T21:39:31;12.48;74.73
13091;DHT22;6611;52.604;13.438;2023-05-14T21:44:33;12.39;75.00
13091;DHT22;6611;52.604;13.438;2023-05-14T21:49:36;12.29;75.15
13091;DHT22;6611;52.604;13.438;2023-05-14T21:54:38;12.17;75.40
13091;DHT22;6611;52.604;13.438;2023-05-14T21:59:40;12.07;75.61
13091;DHT22;6611;52.604;13.438;2023-05-14T22:04:43;12.05;75.56
13091;DHT22;6611;52.604;13.438;2023-05-14T22:09:45;11.94;75.68
13091;DHT22;6611;52.604;13.438;2023-05-14T22:14:46;11.82;76.22
13091;DHT22;6611;52.604;13.438;2023-05-14T22:19:49;11.89;75.70
13091;DHT22;6611;52.604;13.438;2023-05-14T22:24:51;11.86;75.68
13091;DHT22;6611;52.604;13.438;2023-05-14T22:29:53;11.79;75.56
13091;DHT22;6611;52.604;13.438;2023-05-14T22:34:56;11.58;76.42
13091;DHT22;6611;52.604;13.438;2023-05-14T22:39:58;11.45;76.59
13091;DHT22;6611;52.604;13.438;2023-05-14T22:45:01;11.40;76.89
13091;DHT22;6611;52.604;13.438;2023-05-14T22:50:05;11.38;76.81
13091;DHT22;6611;52.604;13.438;2023-05-14T22:55:10;11.36;76.69
13091;DHT22;6611;52.604;13.438;2023-05-14T23:00:12;11.22;77.20
13091;DHT22;6611;52.604;13.438;2023-05-14T23:05:16;11.06;77.61
13091;DHT22;6611;52.604;13.438;2023-05-14T23:10:18;10.97;77.67
13091;DHT22;6611;52.604;13.438;2023-05-14T23:15:19;11.04;77.32
13091;DHT22;6611;52.604;13.438;2023-05-14T23:20:22;11.01;77.71
13091;DHT22;6611;52.604;13.438;2023-05-14T23:25:24;10.87;78.03
13091;DHT22;6611;52.604;13.438;2023-05-14T23:30:26;10.79;78.72
13091;DHT22;6611;52.604;13.438;2023-05-14T23:35:29;10.70;79.11
13091;DHT22;6611;52.604;13.438;2023-05-14T23:40:31;10.66;79.33
13091;DHT22;6611;52.604;13.438;2023-05-14T23:45:32;10.68;78.78
13091;DHT22;6611;52.604;13.438;2023-05-14T23:50:36;10.52;79.43
13091;DHT22;6611;52.604;13.438;2023-05-14T23:55:38;10.49;79.69
